Map

Track Data

SID SEASON NUMBER BASIN SUBBASIN NAME ISO_TIME NATURE LAT LON WMO_WIND WMO_PRES WMO_AGENCY TRACK_TYPE DIST2LAND LANDFALL IFLAG USA_AGENCY USA_ATCF_ID USA_LAT USA_LON USA_RECORD USA_STATUS USA_WIND USA_PRES USA_SSHS USA_R34_NE USA_R34_SE USA_R34_SW USA_R34_NW USA_R50_NE USA_R50_SE USA_R50_SW USA_R50_NW USA_R64_NE USA_R64_SE USA_R64_SW USA_R64_NW USA_POCI USA_ROCI USA_RMW USA_EYE TOKYO_LAT TOKYO_LON TOKYO_GRADE TOKYO_WIND TOKYO_PRES TOKYO_R50_DIR TOKYO_R50_LONG TOKYO_R50_SHORT TOKYO_R30_DIR TOKYO_R30_LONG TOKYO_R30_SHORT TOKYO_LAND CMA_LAT CMA_LON CMA_CAT CMA_WIND CMA_PRES HKO_LAT HKO_LON HKO_CAT HKO_WIND HKO_PRES NEWDELHI_LAT NEWDELHI_LON NEWDELHI_GRADE NEWDELHI_WIND NEWDELHI_PRES NEWDELHI_CI NEWDELHI_DP NEWDELHI_POCI REUNION_LAT REUNION_LON REUNION_TYPE REUNION_WIND REUNION_PRES REUNION_TNUM REUNION_CI REUNION_RMW REUNION_R34_NE REUNION_R34_SE REUNION_R34_SW REUNION_R34_NW REUNION_R50_NE REUNION_R50_SE REUNION_R50_SW REUNION_R50_NW REUNION_R64_NE REUNION_R64_SE REUNION_R64_SW REUNION_R64_NW BOM_LAT BOM_LON BOM_TYPE BOM_WIND BOM_PRES BOM_TNUM BOM_CI BOM_RMW BOM_R34_NE BOM_R34_SE BOM_R34_SW BOM_R34_NW BOM_R50_NE BOM_R50_SE BOM_R50_SW BOM_R50_NW BOM_R64_NE BOM_R64_SE BOM_R64_SW BOM_R64_NW BOM_ROCI BOM_POCI BOM_EYE BOM_POS_METHOD BOM_PRES_METHOD NADI_LAT NADI_LON NADI_CAT NADI_WIND NADI_PRES WELLINGTON_LAT WELLINGTON_LON WELLINGTON_WIND WELLINGTON_PRES DS824_LAT DS824_LON DS824_STAGE DS824_WIND DS824_PRES TD9636_LAT TD9636_LON TD9636_STAGE TD9636_WIND TD9636_PRES TD9635_LAT TD9635_LON TD9635_WIND TD9635_PRES TD9635_ROCI NEUMANN_LAT NEUMANN_LON NEUMANN_CLASS NEUMANN_WIND NEUMANN_PRES MLC_LAT MLC_LON MLC_CLASS MLC_WIND MLC_PRES USA_GUST BOM_GUST BOM_GUST_PER REUNION_GUST REUNION_GUST_PER USA_SEAHGT USA_SEARAD_NE USA_SEARAD_SE USA_SEARAD_SW USA_SEARAD_NW STORM_SPEED STORM_DIR
1987264N10190 1987 80 EP CP PEKE 1987-09-21 00:00:00 NR 10.0000 190.300 25 cphc main 1708 1708 O_________O___ jtwc_wp WP161987 10.0000 -169.700 25 -1 10.0000 -169.700 1 25 10 269
1987264N10190 1987 80 EP CP PEKE 1987-09-21 03:00:00 NR 9.99263 189.801 main 1741 1741 P_________P___ WP161987 10.0203 -170.205 25 -1 9.96770 -170.222 1 25 10 269
1987264N10190 1987 80 EP CP PEKE 1987-09-21 06:00:00 NR 9.98267 189.285 25 cphc main 1776 1776 O_________P___ jtwc_wp WP161987 10.0000 -170.700 25 -1 9.94800 -170.745 1 25 10 269
1987264N10190 1987 80 EP CP PEKE 1987-09-21 09:00:00 NR 9.97476 188.743 main 1818 1818 P_________P___ WP161987 9.93968 -171.198 25 -1 9.95430 -171.271 1 25 11 271
1987264N10190 1987 80 EP CP PEKE 1987-09-21 12:00:00 NR 10.0000 188.200 25 cphc main 1855 1855 O_________O___ jtwc_wp WP161987 10.0000 -171.800 25 -1 10.0000 -171.800 1 25 10 276
1987264N10190 1987 80 EP CP PEKE 1987-09-21 15:00:00 NR 10.0781 187.685 main 1884 1884 P_________P___ WP161987 10.4230 -172.656 27 -1 10.0946 -172.331 1 26 12 286
1987264N10190 1987 80 EP CP PEKE 1987-09-21 18:00:00 TS 10.3287 187.046 30 hurdat_epa main 1921 1914 O_________P___ hurdat_epa CP021987 10.8000 -173.500 TD 30 -1 10.2325 -172.852 1 27 13 288
1987264N10190 1987 80 EP CP PEKE 1987-09-21 21:00:00 TS 10.4759 186.449 main 1953 1953 P_________P___ CP021987 10.7171 -174.061 TD 35 0 10.4041 -173.347 1 28 12 281
1987264N10190 1987 80 EP CP PEKE 1987-09-22 00:00:00 TS 10.5571 185.900 40 hurdat_epa main 1986 1986 O_________O___ hurdat_epa CP021987 10.5000 -174.500 TS 40 0 10.6000 -173.800 1 30 10 276
1987264N10190 1987 80 EP CP PEKE 1987-09-22 03:00:00 TS 10.5910 185.399 main 2027 2027 P_________P___ CP021987 10.3900 -174.980 TS 42 0 10.7909 -174.205 1 31 9 279
1987264N10190 1987 80 EP CP PEKE 1987-09-22 06:00:00 TS 10.7008 185.005 45 hurdat_epa main 2054 2054 O_________P___ hurdat_epa CP021987 10.4000 -175.400 TS 45 0 11.0046 -174.568 1 32 8 295
1987264N10190 1987 80 EP CP PEKE 1987-09-22 09:00:00 TS 10.9172 184.679 main 2065 2065 P_________P___ CP021987 10.5974 -175.722 TS 45 0 11.2410 -174.896 1 33 8 310
1987264N10190 1987 80 EP CP PEKE 1987-09-22 12:00:00 TS 11.2000 184.400 45 hurdat_epa main 2069 2066 O_________O___ hurdat_epa CP021987 10.9000 -176.000 TS 45 0 11.5000 -175.200 2 35 8 316
1987264N10190 1987 80 EP CP PEKE 1987-09-22 15:00:00 TS 11.4836 184.127 main 2075 2069 P_________P___ CP021987 11.1850 -176.315 TS 47 0 11.7621 -175.505 2 36 8 319
1987264N10190 1987 80 EP CP PEKE 1987-09-22 18:00:00 TS 11.7912 183.869 50 hurdat_epa main 2073 2073 O_________P___ hurdat_epa CP021987 11.5000 -176.600 TS 50 0 12.0474 -175.788 2 37 8 320
1987264N10190 1987 80 EP CP PEKE 1987-09-22 21:00:00 TS 12.1044 183.596 main 2081 2074 P_________P___ CP021987 11.8275 -176.830 TS 50 0 12.3590 -176.052 2 38 8 322
1987264N10190 1987 80 EP CP PEKE 1987-09-23 00:00:00 TS 12.4500 183.350 50 hurdat_epa main 2074 2074 O_________O___ hurdat_epa CP021987 12.2000 -177.000 TS 50 0 12.7000 -176.300 2 40 9 330
1987264N10190 1987 80 EP CP PEKE 1987-09-23 03:00:00 TS 12.8392 183.156 main 2074 2066 P_________P___ CP021987 12.6350 -177.115 TS 52 0 13.0753 -176.576 2 42 9 337
1987264N10190 1987 80 EP CP PEKE 1987-09-23 06:00:00 TS 13.2629 182.995 55 hurdat_epa main 2063 2056 O_________P___ hurdat_epa CP021987 13.1000 -177.200 TS 55 0 13.4776 -176.832 2 45 9 340
1987264N10190 1987 80 EP CP PEKE 1987-09-23 09:00:00 TS 13.7018 182.826 main 2060 2048 P_________P___ CP021987 13.5500 -177.307 TS 57 0 13.8910 -177.047 2 47 9 342
1987264N10190 1987 80 EP CP PEKE 1987-09-23 12:00:00 TS 14.1500 182.700 60 hurdat_epa main 2043 2022 O_________O___ hurdat_epa CP021987 14.0000 -177.400 TS 60 0 14.3000 -177.200 2 50 9 350
1987264N10190 1987 80 EP CP PEKE 1987-09-23 15:00:00 TS 14.5971 182.655 main 2022 2012 P_________P___ CP021987 14.4425 -177.450 TS 67 1 14.7105 -177.257 2 53 9 357
1987264N10190 1987 80 EP CP PEKE 1987-09-23 18:00:00 TS 15.0350 182.641 75 hurdat_epa main 2012 1988 O_________P___ hurdat_epa CP021987 14.9000 -177.500 HU 75 1 15.1098 -177.253 2 57 9 356
1987264N10190 1987 80 EP CP PEKE 1987-09-23 21:00:00 TS 15.4790 182.596 main 1988 1975 P_________P___ CP021987 15.4450 -177.600 HU 77 1 15.4793 -177.223 2 61 8 354
1987264N10190 1987 80 EP CP PEKE 1987-09-24 00:00:00 TS 15.8500 182.550 80 hurdat_epa main 1970 1972 O_________O___ hurdat_epa CP021987 15.9000 -177.700 HU 80 1 15.8000 -177.200 3 65 6 353
1987264N10190 1987 80 EP CP PEKE 1987-09-24 03:00:00 TS 16.0902 182.522 main 1972 1967 P_________P___ CP021987 16.1100 -177.758 HU 82 1 16.0665 -177.227 3 67 4 351
1987264N10190 1987 80 EP CP PEKE 1987-09-24 06:00:00 TS 16.2471 182.488 85 hurdat_epa main 1967 1963 O_________P___ hurdat_epa CP021987 16.2000 -177.800 HU 85 2 16.2824 -177.270 3 70 3 343
1987264N10190 1987 80 EP CP PEKE 1987-09-24 09:00:00 TS 16.3837 182.429 main 1969 1965 P_________P___ CP021987 16.3000 -177.843 HU 87 2 16.4571 -177.327 3 72 3 332
1987264N10190 1987 80 EP CP PEKE 1987-09-24 12:00:00 TS 16.5000 182.350 90 hurdat_epa main 1975 1971 O_________O___ hurdat_epa CP021987 16.4000 -177.900 HU 90 2 16.6000 -177.400 4 75 3 325
1987264N10190 1987 80 EP CP PEKE 1987-09-24 15:00:00 TS 16.6272 182.249 main 1981 1977 P_________P___ CP021987 16.5425 -178.007 HU 90 2 16.7206 -177.486 4 77 3 323
1987264N10190 1987 80 EP CP PEKE 1987-09-24 18:00:00 TS 16.7525 182.152 90 hurdat_epa main 1973 1973 O_________P___ hurdat_epa CP021987 16.7000 -178.100 HU 90 2 16.8150 -177.585 4 80 3 329
1987264N10190 1987 80 EP CP PEKE 1987-09-24 21:00:00 TS 16.8728 182.094 main 1979 1976 P_________P___ CP021987 16.8500 -178.115 HU 90 2 16.9019 -177.692 4 82 3 339
1987264N10190 1987 80 EP CP PEKE 1987-09-25 00:00:00 TS 17.0000 182.050 90 hurdat_epa main 1976 1982 O_________O___ hurdat_epa CP021987 17.0000 -178.100 HU 90 2 17.0000 -177.800 4 85 3 342
1987264N10190 1987 80 EP CP PEKE 1987-09-25 03:00:00 TS 17.1475 181.997 main 1982 1975 P_________P___ CP021987 17.1575 -178.100 HU 90 2 17.1275 -177.916 4 83 3 341
1987264N10190 1987 80 EP CP PEKE 1987-09-25 06:00:00 TS 17.2950 181.945 90 hurdat_epa main 1985 1981 O_________P___ hurdat_epa CP021987 17.3000 -178.100 HU 90 2 17.2700 -178.030 4 82 3 339
1987264N10190 1987 80 EP CP PEKE 1987-09-25 09:00:00 TS 17.4213 181.890 main 1981 1978 P_________P___ CP021987 17.4000 -178.100 HU 90 2 17.4275 -178.129 4 81 3 340
1987264N10190 1987 80 EP CP PEKE 1987-09-25 12:00:00 TS 17.5500 181.850 90 hurdat_epa main 1985 1981 O_________O___ hurdat_epa CP021987 17.5000 -178.100 HU 90 2 17.6000 -178.200 4 80 3 348
1987264N10190 1987 80 EP CP PEKE 1987-09-25 15:00:00 TS 17.6975 181.839 main 1981 1978 P_________P___ CP021987 17.6500 -178.100 HU 90 2 17.7653 -178.237 4 80 3 355
1987264N10190 1987 80 EP CP PEKE 1987-09-25 18:00:00 TS 17.8579 181.842 90 hurdat_epa main 1975 1972 O_________P___ hurdat_epa CP021987 17.8000 -178.100 HU 90 2 17.9475 -178.245 4 80 3 0
1987264N10190 1987 80 EP CP PEKE 1987-09-25 21:00:00 TS 18.0097 181.846 main 1972 1966 P_________P___ CP021987 17.8775 -178.093 HU 90 2 18.1559 -178.231 4 80 3 3
1987264N10190 1987 80 EP CP PEKE 1987-09-26 00:00:00 TS 18.2000 181.850 90 hurdat_epa main 1966 1960 O_________O___ hurdat_epa CP021987 18.0000 -178.100 HU 90 2 18.4000 -178.200 4 80 4 0
1987264N10190 1987 80 EP CP PEKE 1987-09-26 03:00:00 TS 18.4488 181.845 main 1960 1951 P_________P___ CP021987 18.2550 -178.150 HU 90 2 18.6728 -178.164 4 78 6 0
1987264N10190 1987 80 EP CP PEKE 1987-09-26 06:00:00 TS 18.7638 181.847 90 hurdat_epa main 1949 1931 O_________P___ hurdat_epa CP021987 18.6000 -178.200 HU 90 2 18.9825 -178.115 4 77 7 0
1987264N10190 1987 80 EP CP PEKE 1987-09-26 09:00:00 TS 19.1356 181.870 main 1931 1921 P_________P___ CP021987 18.9775 -178.208 HU 90 2 19.3260 -178.058 4 76 8 4
1987264N10190 1987 80 EP CP PEKE 1987-09-26 12:00:00 TS 19.5500 181.900 90 hurdat_epa main 1919 1913 O_________O___ hurdat_epa CP021987 19.4000 -178.200 HU 90 2 19.7000 -178.000 4 75 8 4
1987264N10190 1987 80 EP CP PEKE 1987-09-26 15:00:00 TS 19.9650 181.935 main 1911 1893 P_________P___ CP021987 19.8350 -178.193 HU 87 2 20.1003 -177.914 4 75 9 4
1987264N10190 1987 80 EP CP PEKE 1987-09-26 18:00:00 TS 20.4046 181.961 85 hurdat_epa main 1893 1887 O_________P___ hurdat_epa CP021987 20.3000 -178.200 HU 85 2 20.5274 -177.834 4 75 9 2
1987264N10190 1987 80 EP CP PEKE 1987-09-26 21:00:00 TS 20.8676 181.976 main 1886 1882 P_________P___ CP021987 20.7850 -178.235 HU 85 2 20.9659 -177.786 4 75 10 0
1987264N10190 1987 80 EP CP PEKE 1987-09-27 00:00:00 TS 21.3560 181.932 85 hurdat_epa main 1890 1886 O_O_______O___ hurdat_epa CP021987 21.3000 -178.300 HU 85 2 21.5000 181.500 3 58 980 21.4000 -177.800 4 75 10 352
1987264N10190 1987 80 EP CP PEKE 1987-09-27 03:00:00 TS 21.8589 181.837 main 1895 1894 P_P_______P___ CP021987 21.8575 -178.385 HU 85 2 21.8575 -178.612 3 58 980 21.8517 -177.889 4 75 10 347
1987264N10190 1987 80 EP CP PEKE 1987-09-27 06:00:00 TS 22.3318 181.693 85 hurdat_epa main 1903 1902 O_O_______P___ hurdat_epa CP021987 22.4000 -178.500 HU 85 2 22.2000 181.300 3 58 980 22.2898 -178.044 4 75 9 343
1987264N10190 1987 80 EP CP PEKE 1987-09-27 09:00:00 TS 22.7553 181.543 main 1922 1922 P_P_______P___ CP021987 22.8947 -178.590 HU 85 2 22.5150 -178.750 3 63 977 22.6830 -178.252 4 75 8 337
1987264N10190 1987 80 EP CP PEKE 1987-09-27 12:00:00 TS 23.0760 181.344 85 hurdat_epa main 1942 1942 O_O_______O___ hurdat_epa CP021987 23.3000 -178.800 HU 85 2 22.8000 181.200 4 68 975 23.0000 -178.500 4 75 7 318
1987264N10190 1987 80 EP CP PEKE 1987-09-27 15:00:00 TS 23.2530 181.053 main 1963 1963 P_P_______P___ CP021987 23.6407 -179.329 HU 85 2 23.0650 -178.885 4 68 975 23.1880 -178.777 4 75 6 296
1987264N10190 1987 80 EP CP PEKE 1987-09-27 18:00:00 TS 23.3374 180.771 85 hurdat_epa main 1993 1993 O_O_______P___ hurdat_epa CP021987 23.8000 -179.800 HU 85 2 23.3000 181.000 4 68 975 23.3028 -179.086 4 75 4 289
1987264N10190 1987 80 EP CP PEKE 1987-09-27 21:00:00 TS 23.3903 180.628 main 2014 2014 P_P_______P___ CP021987 23.6573 -179.803 HU 80 1 23.5000 -179.128 4 68 972 23.3912 -179.402 4 75 4 303
1987264N10190 1987 80 EP CP PEKE 1987-09-28 00:00:00 TS 23.5533 180.407 75 cphc main 2035 2035 O_O_______O___ jtwc_wp WP161987 23.5000 -179.700 75 -1 23.7000 180.700 4 68 970 23.5000 -179.700 4 75 5 316
1987264N10190 1987 80 EP CP PEKE 1987-09-28 03:00:00 TS 23.7679 180.234 main 2055 2055 P_P_______P___ WP161987 23.6399 -179.798 75 -1 23.9574 -179.512 4 72 967 23.6993 -179.894 4 75 5 327
1987264N10190 1987 80 EP CP PEKE 1987-09-28 06:00:00 TS 24.0003 180.085 main 2066 2066 OOO_______P___ jtwc_wp WP161987 23.9000 180.000 75 -1 24.0000 180.700 7 80 950 9 100 100 9 250 250 0 24.2000 180.200 4 77 965 23.9259 179.924 4 75 6 322
1987264N10190 1987 80 WP MM PEKE 1987-09-28 09:00:00 TS 24.2248 179.838 main 2098 2098 PPP_______P___ WP161987 24.1573 179.753 75 -1 24.2002 -179.727 7 80 950 9 100 100 9 250 250 24.3649 179.837 4 77 962 24.1646 179.705 4 75 7 308
1987264N10190 1987 80 WP MM PEKE 1987-09-28 12:00:00 TS 24.4312 179.481 80 950 tokyo main 2129 2129 OOOO______O___ jtwc_wp WP161987 24.4000 179.400 75 -1 24.4000 179.800 5 80 950 9 100 100 9 250 250 0 24.5000 179.400 4 77 960 24.5000 179.500 T 75 955 24.4000 179.400 4 75 8 297
1987264N10190 1987 80 WP MM PEKE 1987-09-28 15:00:00 TS 24.6091 179.017 main 2181 2181 PPPP______P___ WP161987 24.5499 178.945 82 -1 24.5997 179.245 5 80 950 9 100 100 9 250 250 24.6423 178.930 4 77 957 24.7154 179.006 T 75 955 24.5913 178.955 4 81 10 291
1987264N10190 1987 80 WP MM PEKE 1987-09-28 18:00:00 TS 24.7901 178.462 80 950 tokyo main 2232 2232 OOOO______P___ jtwc_wp WP161987 24.7000 178.400 90 -1 24.8000 178.600 5 80 950 9 100 100 9 250 250 0 24.8000 178.400 4 77 955 24.9000 178.500 T 75 955 24.7779 178.419 4 87 11 290
1987264N10190 1987 80 WP MM PEKE 1987-09-28 21:00:00 TS 24.9860 177.856 main 2294 2294 PPPP______P___ WP161987 24.9349 177.815 95 -1 24.9927 177.857 5 80 950 9 100 100 9 250 250 24.9849 177.815 4 82 952 25.0422 177.972 T 75 955 24.9754 177.823 4 93 12 290
1987264N10190 1987 80 WP MM PEKE 1987-09-29 00:00:00 TS 25.2000 177.220 80 950 tokyo main 2366 2366 OOOO______O___ jtwc_wp WP161987 25.2000 177.200 100 -1 25.2000 177.100 5 80 950 9 100 100 9 250 250 0 25.2000 177.200 5 87 950 25.2000 177.400 T 75 955 25.2000 177.200 4 100 12 292
1987264N10190 1987 80 WP MM PEKE 1987-09-29 03:00:00 TS 25.4322 176.615 main 2428 2428 PPPP______P___ WP161987 25.4347 176.607 100 -1 25.4269 176.442 5 80 950 9 100 100 9 250 250 25.4344 176.630 5 87 950 25.4271 176.787 T 75 955 25.4381 176.607 4 100 12 294
1987264N10190 1987 80 WP MM PEKE 1987-09-29 06:00:00 TS 25.7018 175.978 80 950 tokyo main 2490 2490 OOOO______P___ jtwc_wp WP161987 25.7000 176.000 100 -1 25.7000 175.800 5 80 950 9 100 100 9 250 250 0 25.7000 176.000 5 87 950 25.7000 176.100 T 75 955 25.7090 175.992 4 100 13 295
1987264N10190 1987 80 WP MM PEKE 1987-09-29 09:00:00 TS 26.0011 175.268 main 2563 2563 PPPP______P___ WP161987 26.0271 175.372 100 -1 26.0199 175.100 5 80 950 9 100 100 9 250 250 25.9703 175.215 5 87 950 25.9628 175.300 T 75 955 26.0254 175.356 4 100 15 297
1987264N10190 1987 80 WP MM PEKE 1987-09-29 12:00:00 TS 26.3600 174.540 80 950 tokyo main 2646 2646 OOOO______O___ jtwc_wp WP161987 26.4000 174.700 100 -1 26.4000 174.400 5 80 950 9 100 100 9 250 250 0 26.3000 174.400 5 87 950 26.3000 174.500 T 75 955 26.4000 174.700 4 100 15 301
1987264N10190 1987 80 WP MM PEKE 1987-09-29 15:00:00 TS 26.7845 173.833 main 2719 2719 PPPP______P___ WP161987 26.7626 173.949 100 -1 26.8272 173.735 5 80 950 9 100 100 9 250 250 26.7122 173.662 5 82 952 26.7694 173.827 T 75 955 26.8511 173.991 4 100 15 306
1987264N10190 1987 80 WP MM PEKE 1987-09-29 18:00:00 TS 27.2712 173.153 80 950 tokyo main 2784 2784 OOOO______P___ jtwc_wp WP161987 27.2000 173.200 100 -1 27.3000 173.100 5 80 950 9 100 100 9 250 250 0 27.2000 173.000 4 77 955 27.3000 173.200 T 75 955 27.3559 173.265 4 100 16 311
1987264N10190 1987 80 WP MM PEKE 1987-09-29 21:00:00 TS 27.7973 172.506 main 2807 2727 PPPP______P___ WP161987 27.7846 172.528 100 -1 27.7922 172.485 5 80 950 9 100 100 9 250 250 27.7345 172.427 4 77 955 27.7924 172.535 T 75 955 27.8826 172.556 4 100 15 314
1987264N10190 1987 80 WP MM PEKE 1987-09-30 00:00:00 TS 28.3400 171.900 80 950 tokyo main 2727 2647 OOOO______O___ jtwc_wp WP161987 28.4000 171.900 100 -1 28.3000 171.900 5 80 950 9 100 100 9 250 250 0 28.3000 171.900 4 77 955 28.3000 171.900 T 75 955 28.4000 171.900 4 100 15 315
1987264N10190 1987 80 WP MM PEKE 1987-09-30 03:00:00 TS 28.8695 171.308 main 2638 2573 PPPP______P___ WP161987 28.9300 171.262 100 -1 28.7998 171.327 5 80 950 9 100 100 9 250 250 28.8724 171.335 4 77 955 28.8572 171.320 T 75 955 28.8878 171.297 4 100 14 316
1987264N10190 1987 80 WP MM PEKE 1987-09-30 06:00:00 TS 29.3718 170.771 80 950 tokyo main 2564 2499 OOOO______P___ jtwc_wp WP161987 29.4000 170.700 100 -1 29.3000 170.800 5 80 950 9 100 100 9 250 250 0 29.4000 170.800 4 77 955 29.4000 170.800 T 75 955 29.3590 170.757 4 100 13 317
1987264N10190 1987 80 WP MM PEKE 1987-09-30 09:00:00 TS 29.8250 170.291 main 2499 2440 PPPP______P___ WP161987 29.8221 170.262 100 -1 29.8150 170.298 5 80 950 9 100 100 9 250 250 29.8150 170.297 4 77 957 29.8724 170.312 T 72 957 29.8008 170.288 4 100 12 319
1987264N10190 1987 80 WP MM PEKE 1987-09-30 12:00:00 TS 30.2400 169.900 80 950 tokyo main 2440 2387 OOOO______O___ jtwc_wp WP161987 30.2000 169.900 100 -1 30.3000 169.900 5 80 950 9 100 100 9 250 250 0 30.2000 169.900 4 77 960 30.3000 169.900 T 70 960 30.2000 169.900 4 100 10 323
1987264N10190 1987 80 WP MM PEKE 1987-09-30 15:00:00 TS 30.6535 169.577 main 2379 2341 PPPP______P___ WP161987 30.5726 169.505 97 -1 30.7373 169.647 5 77 952 9 100 100 9 250 250 30.6722 169.655 4 77 960 30.7149 169.540 T 67 962 30.5707 169.538 4 97 9 329
1987264N10190 1987 80 WP MM PEKE 1987-09-30 18:00:00 TS 31.0193 169.352 75 955 tokyo main 2341 2303 OOOO______P___ jtwc_wp WP161987 30.9000 169.200 95 -1 31.1000 169.500 5 75 955 9 100 100 9 250 250 0 31.1000 169.500 4 77 960 31.1000 169.300 T 65 965 30.8964 169.261 4 95 7 335
1987264N10190 1987 80 WP MM PEKE 1987-09-30 21:00:00 TS 31.3262 169.204 main 2303 2279 PPPP______P___ WP161987 31.1723 169.040 92 -1 31.3874 169.377 5 75 955 9 100 100 9 250 250 31.3950 169.327 4 72 962 31.5024 169.197 T 65 965 31.1740 169.079 4 92 6 341
1987264N10190 1987 80 WP MM PEKE 1987-10-01 00:00:00 TS 31.5600 169.140 75 955 tokyo main 2271 2262 OOOO______O___ jtwc_wp WP161987 31.4000 169.000 90 -1 31.6000 169.300 5 75 955 9 100 100 9 250 250 0 31.6000 169.200 4 68 965 31.8000 169.200 T 65 965 31.4000 169.000 4 90 4 350
1987264N10190 1987 80 WP MM PEKE 1987-10-01 03:00:00 TS 31.7508 169.110 main 2254 2251 PPPP______P___ WP161987 31.6299 169.005 85 -1 31.8025 169.212 5 75 960 9 100 100 9 250 250 31.7874 169.097 4 68 965 31.9025 169.227 T 65 965 31.6319 169.006 4 86 3 0
1987264N10190 1987 80 WP MM PEKE 1987-10-01 06:00:00 TS 31.8614 169.163 75 965 tokyo main 2251 2251 OOOO______P___ jtwc_wp WP161987 31.8000 169.100 80 -1 31.9000 169.200 5 75 965 9 100 100 9 250 250 0 31.9000 169.100 4 68 965 31.9000 169.300 T 65 965 31.8072 169.113 4 82 2 48
1987264N10190 1987 80 WP MM PEKE 1987-10-01 09:00:00 TS 31.8978 169.304 main 2257 2257 PPPP______P___ WP161987 31.8950 169.270 77 -1 31.8375 169.320 5 75 967 9 95 95 9 250 250 31.9301 169.262 4 68 967 31.9225 169.377 T 62 967 31.9039 169.288 4 78 3 90
1987264N10190 1987 80 WP MM PEKE 1987-10-01 12:00:00 TS 31.8600 169.500 75 970 tokyo main 2270 2270 OOOO______O___ jtwc_wp WP161987 31.9000 169.500 75 -1 31.7000 169.500 5 75 970 9 90 90 9 250 250 0 31.9000 169.500 4 68 970 31.9000 169.500 STS 60 970 31.9000 169.500 4 75 3 106
1987264N10190 1987 80 WP MM PEKE 1987-10-01 15:00:00 TS 31.7991 169.699 main 2290 2290 PPPP______P___ WP161987 31.8600 169.750 70 -1 31.6150 169.650 5 72 972 9 80 80 9 275 275 31.8875 169.715 4 68 970 31.8451 169.692 STS 57 972 31.7878 169.689 4 72 4 121
1987264N10190 1987 80 WP MM PEKE 1987-10-01 18:00:00 TS 31.6555 169.901 70 975 tokyo main 2311 2311 OOOO______P___ jtwc_wp WP161987 31.7000 170.000 65 -1 31.5000 169.800 5 70 975 9 70 70 9 300 300 0 31.8000 169.900 4 68 970 31.7000 169.900 STS 55 975 31.5774 169.905 4 70 5 142
1987264N10190 1987 80 WP MM PEKE 1987-10-01 21:00:00 TS 31.4075 170.054 main 2349 2349 PPPP______P___ WP161987 31.3799 170.208 65 -1 31.3223 169.912 5 65 977 9 65 65 9 300 300 31.5947 169.969 4 63 972 31.4373 170.035 STS 52 977 31.3033 170.145 4 67 6 153
1987264N10190 1987 80 WP MM PEKE 1987-10-02 00:00:00 TS 31.1000 170.240 60 980 tokyo main 2380 2380 OOOO______O___ jtwc_wp WP161987 31.0000 170.400 65 -1 31.1000 170.100 4 60 980 9 60 60 9 300 300 0 31.3000 170.100 3 58 975 31.1000 170.200 STS 50 980 31.0000 170.400 4 65 7 147
1987264N10190 1987 80 WP MM PEKE 1987-10-02 03:00:00 TS 30.7904 170.524 main 2424 2424 PPPP______P___ WP161987 30.6923 170.577 62 -1 30.8502 170.470 4 60 982 9 60 60 9 300 300 30.9577 170.455 3 58 977 30.7424 170.455 STS 50 980 30.7093 170.661 4 62 8 139
1987264N10190 1987 80 WP MM PEKE 1987-10-02 06:00:00 TS 30.4800 170.867 60 985 tokyo main 2475 2475 OOOO______P___ jtwc_wp WP161987 30.4000 170.800 60 -1 30.6000 170.900 4 60 985 9 60 60 9 300 300 0 30.6000 170.900 3 58 980 30.4000 170.800 STS 50 980 30.3999 170.935 4 60 9 134
1987264N10190 1987 80 WP MM PEKE 1987-10-02 09:00:00 TS 30.1991 171.230 main 2519 2519 PPPP______P___ WP161987 30.0851 171.135 57 -1 30.3924 171.265 4 57 987 9 60 60 9 300 300 30.2775 171.315 3 53 982 30.1500 171.220 STS 47 982 30.0906 171.217 4 57 8 130
1987264N10190 1987 80 WP MM PEKE 1987-10-02 12:00:00 TS 29.9400 171.600 55 990 tokyo main 2569 2569 OOOO______O___ jtwc_wp WP161987 29.8000 171.500 55 -1 30.2000 171.600 4 55 990 9 60 60 9 300 300 0 30.0000 171.700 3 48 985 29.9000 171.700 TS 45 985 29.8000 171.500 2 55 8 129
1987264N10190 1987 80 WP MM PEKE 1987-10-02 15:00:00 TS 29.7058 171.935 main 2605 2605 PPPP______P___ WP161987 29.5924 171.815 52 -1 30.0074 171.907 4 52 991 9 9 300 300 29.7998 172.007 3 48 985 29.5725 172.208 TS 42 987 29.5567 171.737 2 52 7 130
1987264N10190 1987 80 WP MM PEKE 1987-10-02 18:00:00 TS 29.4667 172.256 50 992 tokyo main 2647 2647 OOOO______P___ jtwc_wp WP161987 29.4000 172.100 50 -1 29.8000 172.200 4 50 992 0 9 300 300 0 29.6000 172.300 3 48 985 29.2000 172.700 TS 40 990 29.3337 171.981 2 50 8 132
1987264N10190 1987 80 WP MM PEKE 1987-10-02 21:00:00 TS 29.1942 172.578 main 2691 2691 PPPP______P___ WP161987 29.1872 172.334 47 -1 29.5650 172.507 4 47 992 0 9 275 275 29.3225 172.642 3 43 987 28.7775 173.145 TS 40 990 29.1189 172.259 2 47 8 135
1987264N10190 1987 80 WP MM PEKE 1987-10-03 00:00:00 TS 28.9000 172.900 45 992 tokyo main 2735 2735 OOOO______O___ jtwc_wp WP161987 28.9000 172.600 45 -1 29.3000 172.800 3 45 992 0 9 250 250 0 29.0000 173.000 2 38 990 28.4000 173.500 TS 40 990 28.9000 172.600 2 45 9 137
1987264N10190 1987 80 WP MM PEKE 1987-10-03 03:00:00 TS 28.5617 173.241 main 2780 2759 PPPP______P___ WP161987 28.4197 172.948 40 -1 28.9775 173.080 3 42 993 0 9 225 225 28.6500 173.357 2 38 992 28.1698 173.722 TS 37 991 28.5917 173.096 2 42 9 137
1987264N10190 1987 80 WP MM PEKE 1987-10-03 06:00:00 TS 28.2572 173.589 40 994 tokyo main 2759 2727 OOOO______P___ jtwc_wp WP161987 28.0000 173.400 35 -1 28.7000 173.300 3 40 994 0 9 200 200 0 28.3000 173.700 2 38 994 28.0000 173.900 TS 35 992 28.2860 173.644 2 40 8 129
1987264N10190 1987 80 WP MM PEKE 1987-10-03 09:00:00 TS 28.0550 173.950 main 2727 2695 PPPP______P___ WP161987 27.8756 174.022 35 -1 28.5624 173.415 3 40 994 0 9 200 200 27.9998 174.000 2 38 994 27.8000 174.142 TS 35 992 28.0369 174.169 2 37 7 119
1987264N10190 1987 80 WP MM PEKE 1987-10-03 12:00:00 TS 27.9353 174.241 40 994 tokyo main 2695 2674 OOOO______O___ jtwc_wp WP161987 27.9000 174.600 35 -1 28.5000 173.500 3 40 994 0 9 200 200 0 27.7000 174.300 2 38 994 27.6000 174.400 TS 35 992 27.9000 174.600 2 35 5 117
1987264N10190 1987 80 WP MM PEKE 1987-10-03 15:00:00 TS 27.8372 174.437 main 2674 2664 PPPP______P___ WP161987 27.9495 174.930 32 -1 28.4350 173.650 3 40 995 0 9 200 200 27.3628 174.638 2 33 995 27.3850 174.650 TS 35 992 27.9079 174.891 2 32 3 116
1987264N10190 1987 80 WP MM PEKE 1987-10-03 18:00:00 TS 27.8200 174.510 40 996 tokyo main 2664 2664 OOOO______O___ jtwc_wp WP161987 28.0000 175.100 30 -1 28.4000 173.800 3 40 996 0 9 200 200 0 27.0000 175.000 1 29 996 27.2000 174.900 TS 35 992 28.0000 175.100 1 30 2 318
1987264N10190 1987 80 WP MM PEKE 1987-10-03 21:00:00 TS 27.9550 174.322 main 2687 2687 _P_P__________ WP161987 -1 28.3925 173.907 3 40 996 0 9 200 200 1 27.0801 175.150 TS 32 993 1 4 326
1987264N10190 1987 80 WP MM PEKE 1987-10-04 00:00:00 TS 28.1200 174.280 40 996 tokyo main 2688 2688 _O_O__________ -1 28.4000 174.000 3 40 996 0 9 200 200 0 27.0000 175.400 TD 30 994 4 338
1987264N10190 1987 80 WP MM PEKE 1987-10-04 03:00:00 TS 28.3700 174.130 main 2713 2703 _P____________ -1 28.3700 174.130 3 37 996 0 9 200 200 TD 3 346
1987264N10190 1987 80 WP MM PEKE 1987-10-04 06:00:00 TS 28.4000 174.200 35 996 tokyo main 2703 2703 _O____________ -1 28.4000 174.200 3 35 996 0 9 200 200 0 2 6
1987264N10190 1987 80 WP MM PEKE 1987-10-04 09:00:00 TS 28.5924 174.153 main 2707 2707 _P____________ -1 28.5924 174.153 3 35 997 0 9 200 200 4 336
1987264N10190 1987 80 WP MM PEKE 1987-10-04 12:00:00 TS 28.8000 174.000 35 998 tokyo main 2730 2730 _O____________ -1 28.8000 174.000 3 35 998 0 9 200 200 0 4 311
1987264N10190 1987 80 WP MM PEKE 1987-10-04 15:00:00 TS 28.8725 173.780 main 2751 2751 _P____________ -1 28.8725 173.780 3 999 0 9 4 283
1987264N10190 1987 80 WP MM PEKE 1987-10-04 18:00:00 TS 28.9000 173.500 1000 tokyo main 2773 2745 _O____________ -1 28.9000 173.500 2 1000 0 0 0 5 279
1987264N10190 1987 80 WP MM PEKE 1987-10-04 21:00:00 TS 28.9576 173.193 main 2745 2727 _P____________ -1 28.9576 173.193 2 1002 0 0 5 281
1987264N10190 1987 80 WP MM PEKE 1987-10-05 00:00:00 TS 29.0000 172.900 1004 tokyo main 2727 2714 _O____________ -1 29.0000 172.900 2 1004 0 0 0 5 271
1987264N10190 1987 80 WP MM PEKE 1987-10-05 03:00:00 TS 28.9624 172.677 main 2714 2702 _P____________ -1 28.9624 172.677 2 1007 0 0 3 270
1987264N10190 1987 80 WP MM PEKE 1987-10-05 06:00:00 TS 29.0000 172.500 1010 tokyo main 2702 2679 _O____________ -1 29.0000 172.500 2 1010 0 0 0 4 315
1987264N10190 1987 80 WP MM PEKE 1987-10-05 09:00:00 TS 29.2323 172.372 main 2679 2632 _P____________ -1 29.2323 172.372 2 1011 0 0 7 336
1987264N10190 1987 80 WP MM PEKE 1987-10-05 12:00:00 TS 29.6000 172.200 1012 tokyo main 2632 2564 _O____________ -1 29.6000 172.200 2 1012 0 0 0 10 331
1987264N10190 1987 80 WP MM PEKE 1987-10-05 15:00:00 TS 30.0954 171.829 main 2564 2512 _P____________ -1 30.0954 171.829 2 1013 0 0 11 326
1987264N10190 1987 80 WP MM PEKE 1987-10-05 18:00:00 TS 30.5000 171.500 1014 tokyo main 2512 2506 _O____________ -1 30.5000 171.500 2 1014 0 0 0 6 315
1987264N10190 1987 80 WP MM PEKE 1987-10-05 21:00:00 TS 30.4920 171.373 main 2506 2506 _P____________ -1 30.4920 171.373 2 1014 0 0 0 0
1987264N10190 1987 80 WP MM PEKE 1987-10-06 00:00:00 TS 30.5000 171.500 1014 tokyo main 2512 2501 _O____________ -1 30.5000 171.500 2 1014 0 0 0 7 47
1987264N10190 1987 80 WP MM PEKE 1987-10-06 03:00:00 TS 31.0010 171.997 main 2501 2490 _P____________ -1 31.0010 171.997 2 1013 0 0 13 41
1987264N10190 1987 80 WP MM PEKE 1987-10-06 06:00:00 TS 31.5000 172.500 1012 tokyo main 2490 2480 _O____________ -1 31.5000 172.500 2 1012 0 0 0 7 35
1987264N10190 1987 80 WP MM PEKE 1987-10-06 09:00:00 TS 31.5740 172.463 main 2480 2476 _P____________ -1 31.5740 172.463 2 1011 0 0 0 0
1987264N10190 1987 80 WP MM PEKE 1987-10-06 12:00:00 TS 31.5000 172.500 1010 tokyo main 2490 2490 _O____________ -1 31.5000 172.500 2 1010 0 0 0 6 101
1987264N10190 1987 80 WP MM PEKE 1987-10-06 15:00:00 TS 31.4633 173.138 main 2518 2518 _P____________ -1 31.4633 173.138 2 1009 0 0 13 90
1987264N10190 1987 80 WP MM PEKE 1987-10-06 18:00:00 TS 31.5000 174.000 1008 tokyo main 2560 2560 _O____________ -1 31.5000 174.000 2 1008 0 0 0 14 80
1987264N10190 1987 80 WP MM PEKE 1987-10-06 21:00:00 TS 31.7113 174.712 main 2575 2570 _P____________ -1 31.7113 174.712 2 1006 0 0 14 69
1987264N10190 1987 80 WP MM PEKE 1987-10-07 00:00:00 ET 32.0000 175.500 1004 tokyo main 2587 2584 _O____________ -1 32.0000 175.500 6 1004 0 0 0 15 71
1987264N10190 1987 80 WP MM PEKE 1987-10-07 03:00:00 ET 32.2116 176.427 main 2584 2518 _P____________ -1 32.2116 176.427 6 1003 0 0 18 74
1987264N10190 1987 80 WP MM PEKE 1987-10-07 06:00:00 ET 32.5000 177.500 1002 tokyo main 2514 2436 _O____________ -1 32.5000 177.500 6 1002 0 0 0 21 69
1987264N10190 1987 80 WP MM PEKE 1987-10-07 09:00:00 ET 32.9529 178.708 main 2422 2332 _P____________ -1 32.9529 178.708 6 1001 0 0 23 65
1987264N10190 1987 80 EP CP PEKE 1987-10-07 12:00:00 ET 33.5000 180.000 1000 tokyo main 2329 _O____________ -1 33.5000 180.000 6 1000 0 0 0 24 63

About IBTrACS Database

This database is a web-friendly format of International Best Track Archive for Climate Stewardship (IBTrACS), a global best track data archive curated by NOAA dating back to 1842.

Updated: 2021-10-19